^^
B2 Weather Station Historical Data
Daily Summary for June 30, 2019 Units:  English    Metric   Both
Daily Weekly Monthly Yearly Custom
  High: Low: Average:
Temperature: 92.7 °F 67.8 °F 76.2 °F
Dew Point: 82.3 °F 65.9 °F 72 °F
Humidity: 95% 67% 88%
Wind Speed: 42.6mph 0mph 3.3mph
Wind Gust: 25.5mph - -
Wind- - South
Pressure: 30.10 in 29.83 in -
Precipitation: 0.87 in    
Historical Graphs
 
 
Tabular Data for June 30, 2019
Time Temperature Dew Point Pressure Wind Wind Speed Wind Gust Humidity Rainfall Rate (Hourly) solar
00:04 71.7 °F 69.6 °F 30.02 in Calm     93% 0 in 0.00 W/m2
00:09 71.8 °F 69.7 °F 30.02 in Calm     93% 0 in 0.00 W/m2
00:15 71.7 °F 69.6 °F 30.02 in Calm     93% 0 in 0.00 W/m2
00:19 71.7 °F 69.6 °F 30.02 in Calm     93% 0 in 0.00 W/m2
00:24 71.7 °F 69.6 °F 30.02 in Calm     93% 0 in 0.00 W/m2
00:29 71.6 °F 69.5 °F 30.02 in Calm     93% 0 in 0.00 W/m2
00:34 71.5 °F 69.4 °F 30.02 in Calm     93% 0 in 0.00 W/m2
00:39 71.7 °F 69.9 °F 30.02 in Calm     94% 0 in 0.00 W/m2
00:44 71.7 °F 69.6 °F 30.02 in Calm     93% 0 in 0.00 W/m2
00:49 71.9 °F 69.8 °F 30.02 in Calm     93% 0 in 0.00 W/m2
00:54 71.9 °F 69.8 °F 30.02 in Calm     93% 0 in 0.00 W/m2
00:59 71.9 °F 69.8 °F 30.01 in Calm     93% 0 in 0.00 W/m2
01:05 72 °F 69.9 °F 30.01 in Calm     93% 0 in 0.00 W/m2
01:09 71.8 °F 69.7 °F 30.01 in Calm     93% 0 in 0.00 W/m2
01:14 71.9 °F 69.8 °F 30.01 in Calm     93% 0 in 0.00 W/m2
01:19 72 °F 69.9 °F 30.01 in Calm     93% 0 in 0.00 W/m2
01:24 71.9 °F 69.8 °F 30.01 in Calm     93% 0 in 0.00 W/m2
01:29 71.6 °F 69.5 °F 30.01 in Calm     93% 0 in 0.00 W/m2
01:34 71.3 °F 69.2 °F 30.02 in Calm     93% 0 in 0.00 W/m2
01:39 71.3 °F 69.2 °F 30.02 in Calm     93% 0 in 0.00 W/m2
01:44 71.3 °F 69.5 °F 30.01 in Calm     94% 0 in 0.00 W/m2
01:49 71 °F 69.2 °F 30.02 in Calm     94% 0 in 0.00 W/m2
01:54 70.7 °F 68.9 °F 30.02 in Calm     94% 0 in 0.00 W/m2
01:59 70.6 °F 68.8 °F 30.02 in Calm     94% 0 in 0.00 W/m2
02:04 70.4 °F 68.6 °F 30.02 in Calm     94% 0 in 0.00 W/m2
02:09 70.4 °F 68.6 °F 30.02 in Calm     94% 0 in 0.00 W/m2
02:14 70.5 °F 68.7 °F 30.01 in Calm     94% 0 in 0.00 W/m2
02:19 70.4 °F 68.6 °F 30.02 in Calm     94% 0 in 0.00 W/m2
02:24 70.4 °F 68.9 °F 30.02 in Calm     95% 0 in 0.00 W/m2
02:29 70.3 °F 68.8 °F 30.02 in Calm     95% 0 in 0.00 W/m2
02:34 70.5 °F 69 °F 30.02 in Calm     95% 0 in 0.00 W/m2
02:39 70.6 °F 69.1 °F 30.02 in Calm     95% 0 in 0.00 W/m2
02:44 70.8 °F 69.3 °F 30.02 in Calm     95% 0 in 0.00 W/m2
02:49 70.9 °F 69.4 °F 30.02 in Calm     95% 0 in 0.00 W/m2
02:54 71 °F 69.5 °F 30.02 in Calm     95% 0 in 0.00 W/m2
02:59 71 °F 69.5 °F 30.02 in Calm     95% 0 in 0.00 W/m2
03:04 71 °F 69.5 °F 30.02 in Calm     95% 0 in 0.00 W/m2
03:09 71 °F 69.5 °F 30.02 in Calm     95% 0 in 0.00 W/m2
03:14 70.8 °F 69.3 °F 30.02 in Calm     95% 0 in 0.00 W/m2
03:19 70.9 °F 69.4 °F 30.02 in Calm     95% 0 in 0.00 W/m2
03:24 71.3 °F 69.8 °F 30.01 in Calm     95% 0 in 0.00 W/m2
03:29 71.4 °F 69.9 °F 30.01 in Calm     95% 0 in 0.00 W/m2
03:34 71.4 °F 69.9 °F 30.01 in Calm     95% 0 in 0.00 W/m2
03:39 71.4 °F 69.9 °F 30.01 in Calm     95% 0 in 0.00 W/m2
03:44 71.3 °F 69.8 °F 30.01 in Calm     95% 0 in 0.00 W/m2
03:49 71.2 °F 69.7 °F 30.01 in Calm     95% 0 in 0.00 W/m2
03:54 71.2 °F 69.7 °F 30.01 in Calm     95% 0 in 0.00 W/m2
03:59 71.3 °F 69.8 °F 30.01 in Calm     95% 0 in 0.00 W/m2
04:04 71.4 °F 69.9 °F 30.00 in Calm     95% 0 in 0.00 W/m2
04:09 71.4 °F 69.9 °F 30.00 in Calm     95% 0 in 0.00 W/m2
04:14 71.4 °F 69.9 °F 30.00 in Calm     95% 0 in 0.00 W/m2
04:20 71.4 °F 69.9 °F 30.00 in Calm     95% 0 in 0.00 W/m2
04:24 71.4 °F 69.9 °F 30.00 in Calm     95% 0 in 0.00 W/m2
04:29 71.3 °F 69.8 °F 30.00 in Calm     95% 0 in 0.00 W/m2
04:34 71.3 °F 69.8 °F 30.00 in Calm     95% 0 in 0.00 W/m2
04:39 71.1 °F 69.6 °F 30.00 in Calm     95% 0 in 0.00 W/m2
04:44 70.8 °F 69.3 °F 30.00 in Calm     95% 0 in 0.00 W/m2
04:49 70.7 °F 69.2 °F 30.00 in Calm     95% 0 in 0.00 W/m2
04:54 70.7 °F 69.2 °F 30.00 in Calm     95% 0 in 0.00 W/m2
04:59 70.6 °F 69.1 °F 30.00 in Calm     95% 0 in 0.00 W/m2
05:04 70.6 °F 69.1 °F 30.00 in Calm     95% 0 in 0.00 W/m2
05:09 70.5 °F 69 °F 30.00 in Calm     95% 0 in 0.00 W/m2
05:14 70.3 °F 68.8 °F 30.01 in Calm     95% 0 in 0.00 W/m2
05:19 70.2 °F 68.7 °F 30.01 in Calm     95% 0 in 0.00 W/m2
05:24 70.3 °F 68.8 °F 30.01 in Calm     95% 0 in 0.00 W/m2
05:29 70.3 °F 68.8 °F 30.02 in Calm     95% 0 in 0.00 W/m2
05:34 70.1 °F 68.6 °F 30.01 in Calm     95% 0 in 5.00 W/m2
05:39 69.9 °F 68.4 °F 30.02 in Calm     95% 0 in 9.00 W/m2
05:44 69.8 °F 68.3 °F 30.02 in Calm     95% 0 in 14.00 W/m2
05:49 69.8 °F 68.3 °F 30.02 in Calm     95% 0 in 19.00 W/m2
05:55 69.7 °F 68.2 °F 30.01 in Calm     95% 0 in 23.00 W/m2
05:59 69.9 °F 68.4 °F 30.02 in Calm     95% 0 in 33.00 W/m2
06:04 70.4 °F 68.9 °F 30.02 in Calm     95% 0 in 35.00 W/m2
06:09 70.8 °F 69.3 °F 30.02 in Calm     95% 0 in 49.00 W/m2
06:14 71.2 °F 69.7 °F 30.02 in Calm     95% 0 in 60.00 W/m2
06:19 71.8 °F 70.3 °F 30.02 in Calm     95% 0 in 62.00 W/m2
06:24 72.6 °F 71.1 °F 30.02 in Calm     95% 0 in 69.00 W/m2
06:29 73.1 °F 71.6 °F 30.02 in Calm     95% 0 in 79.00 W/m2
06:34 73.5 °F 72 °F 30.02 in Calm     95% 0 in 88.00 W/m2
06:39 74 °F 72.5 °F 30.02 in Calm     95% 0 in 105.00 W/m2
06:44 74.4 °F 72.9 °F 30.02 in Calm     95% 0 in 70.00 W/m2
06:49 74.6 °F 73.1 °F 30.02 in Calm     95% 0 in 65.00 W/m2
06:54 74.8 °F 73.3 °F 30.02 in Calm     95% 0 in 146.00 W/m2
06:59 75 °F 73.5 °F 30.02 in Calm     95% 0 in 72.00 W/m2
07:05 75.1 °F 73.3 °F 30.02 in Calm     94% 0 in 163.00 W/m2
07:09 75.5 °F 73.3 °F 30.02 in Calm     93% 0 in 74.00 W/m2
07:14 75.6 °F 73.4 °F 30.02 in Calm     93% 0 in 60.00 W/m2
07:19 75.7 °F 73.5 °F 30.02 in Calm     93% 0 in 62.00 W/m2
07:24 75.8 °F 73.6 °F 30.01 in Calm     93% 0 in 155.00 W/m2
07:29 76.1 °F 73.9 °F 30.01 in Calm     93% 0 in 257.00 W/m2
07:34 76.5 °F 74 °F 30.01 in Calm     92% 0 in 269.00 W/m2
07:39 77.3 °F 74.8 °F 30.01 in Calm     92% 0 in 285.00 W/m2
07:44 78 °F 75.2 °F 30.01 in Calm     91% 0 in 320.00 W/m2
07:49 78.6 °F 75.1 °F 30.01 in Calm     89% 0 in 318.00 W/m2
07:54 79.1 °F 75.2 °F 30.01 in Calm     88% 0 in 327.00 W/m2
07:59 79.4 °F 75.5 °F 30.00 in South 5.8 mph 2.3 mph 88% 0 in 346.00 W/m2
08:04 79.7 °F 75.5 °F 30.01 in South 6 mph 3 mph 87% 0 in 366.00 W/m2
08:09 79.9 °F 75.7 °F 30.01 in South 3.5 mph   87% 0 in 381.00 W/m2
08:14 79.9 °F 75.3 °F 30.01 in SSE 3.5 mph 1.9 mph 86% 0 in 160.00 W/m2
08:19 80.2 °F 76 °F 30.01 in Calm   0.4 mph 87% 0 in 369.00 W/m2
08:24 80.7 °F 76.5 °F 30.01 in SSE 4.6 mph 2.8 mph 87% 0 in 250.00 W/m2
08:29 81.1 °F 76.5 °F 30.01 in SSE 4.6 mph 4.1 mph 86% 0 in 450.00 W/m2
08:34 81.5 °F 76.9 °F 30.01 in Calm     86% 0 in 441.00 W/m2
08:39 82 °F 77 °F 30.01 in Calm     85% 0 in 399.00 W/m2
08:44 82.4 °F 77.1 °F 30.01 in Calm     84% 0 in 441.00 W/m2
08:49 83 °F 77.3 °F 30.01 in SSE 3 mph 0.2 mph 83% 0 in 415.00 W/m2
08:54 83.4 °F 77.3 °F 30.01 in South 2.3 mph 0.2 mph 82% 0 in 424.00 W/m2
08:59 83.6 °F 77.5 °F 30.01 in SW 1 mph   82% 0 in 432.00 W/m2
09:04 83.8 °F 77 °F 30.01 in South 2.3 mph   80% 0 in 425.00 W/m2
09:09 83.9 °F 76.3 °F 30.01 in SSW 1 mph 0.5 mph 78% 0 in 473.00 W/m2
09:14 84.2 °F 77 °F 30.01 in South 2.3 mph 0.3 mph 79% 0 in 519.00 W/m2
09:19 84.6 °F 77 °F 30.01 in Calm     78% 0 in 547.00 W/m2
09:24 84.9 °F 76.5 °F 30.01 in SSW 2.3 mph   76% 0 in 566.00 W/m2
09:29 85.5 °F 77.9 °F 30.01 in SSW 3 mph 2.6 mph 78% 0 in 547.00 W/m2
09:34 85.7 °F 76.9 °F 30.01 in SSW 3 mph 1 mph 75% 0 in 566.00 W/m2
09:39 86.2 °F 77.7 °F 30.01 in SSW 2.3 mph 0.9 mph 76% 0 in 563.00 W/m2
09:44 86.8 °F 77.5 °F 30.01 in SSW 2.3 mph 0.8 mph 74% 0 in 561.00 W/m2
09:49 87.2 °F 77.9 °F 30.01 in South 3.5 mph 1.8 mph 74% 0 in 585.00 W/m2
09:54 87.3 °F 78.4 °F 30.01 in South 2 mph 0.3 mph 75% 0 in 585.00 W/m2
09:59 87.8 °F 78.5 °F 30.00 in SE 3.5 mph 1.9 mph 74% 0 in 554.00 W/m2
10:04 88.2 °F 80.1 °F 30.00 in ESE 3.5 mph 2.1 mph 77% 0 in 571.00 W/m2
10:09 88.3 °F 78.1 °F 30.01 in East 1.2 mph 0.2 mph 72% 0 in 589.00 W/m2
10:14 88.8 °F 80.3 °F 30.01 in Calm     76% 0 in 599.00 W/m2
10:19 89.3 °F 79.9 °F 30.01 in East 2.3 mph 0.7 mph 74% 0 in 615.00 W/m2
10:24 89.3 °F 79.5 °F 30.00 in Calm     73% 0 in 642.00 W/m2
10:29 89.4 °F 80 °F 30.00 in SSE 2.3 mph 0.5 mph 74% 0 in 668.00 W/m2
10:34 89.5 °F 80.1 °F 30.00 in ESE 3.5 mph 1.2 mph 74% 0 in 701.00 W/m2
10:39 89.3 °F 78.7 °F 30.00 in Calm     71% 0 in 744.00 W/m2
10:44 89.6 °F 80.2 °F 30.00 in ESE 2.3 mph   74% 0 in 756.00 W/m2
10:49 89.7 °F 79.5 °F 30.00 in East 1.2 mph 0.1 mph 72% 0 in 779.00 W/m2
10:54 89.6 °F 80.2 °F 30.00 in Calm     74% 0 in 784.00 W/m2
10:59 89.8 °F 80.4 °F 30.00 in Calm     74% 0 in 775.00 W/m2
11:04 90 °F 81.4 °F 29.99 in Calm     76% 0 in 758.00 W/m2
11:09 90 °F 79.8 °F 29.99 in Calm     72% 0 in 782.00 W/m2
11:14 90.1 °F 79.4 °F 29.99 in Calm     71% 0 in 819.00 W/m2
11:19 90.2 °F 79.5 °F 29.98 in Calm     71% 0 in 809.00 W/m2
11:24 90.5 °F 80.7 °F 29.99 in East 1 mph   73% 0 in 821.00 W/m2
11:29 91.1 °F 81.2 °F 29.99 in East 3.5 mph 2.4 mph 73% 0 in 740.00 W/m2
11:34 91.4 °F 81.1 °F 29.99 in ENE 3.5 mph 2.1 mph 72% 0 in 835.00 W/m2
11:39 91.7 °F 81.4 °F 29.99 in ENE 3.5 mph 1.3 mph 72% 0 in 854.00 W/m2
11:44 92 °F 80.8 °F 29.99 in NNE 3.5 mph 0.6 mph 70% 0 in 893.00 W/m2
11:49 92 °F 80.4 °F 29.99 in NNE 2 mph 0.3 mph 69% 0 in 378.00 W/m2
11:54 91.9 °F 80.7 °F 29.99 in East 6.9 mph 3.9 mph 70% 0 in 311.00 W/m2
11:59 91.2 °F 79.6 °F 29.99 in Calm     69% 0 in 360.00 W/m2
12:04 90.7 °F 80 °F 29.99 in Calm   0.4 mph 71% 0 in 316.00 W/m2
12:09 90.2 °F 80.4 °F 29.99 in Calm     73% 0 in 336.00 W/m2
12:14 90.2 °F 80.4 °F 29.98 in Calm   0.2 mph 73% 0 in 884.00 W/m2
12:19 90.5 °F 80.2 °F 29.99 in SE 2.3 mph   72% 0 in 348.00 W/m2
12:24 90.6 °F 79.9 °F 29.98 in ESE 1 mph   71% 0 in 856.00 W/m2
12:29 90.9 °F 79.3 °F 29.98 in Calm     69% 0 in 909.00 W/m2
12:34 91 °F 78.5 °F 29.98 in Calm     67% 0 in 956.00 W/m2
12:39 91.1 °F 78.6 °F 29.98 in Calm     67% 0 in 1027.00 W/m2
12:44 91.8 °F 82.3 °F 29.98 in ENE 4.6 mph 4 mph 74% 0 in 1011.00 W/m2
12:49 92 °F 80.4 °F 29.98 in East 3.5 mph 1.4 mph 69% 0 in 513.00 W/m2
12:54 92.2 °F 81.4 °F 29.98 in ENE 5.8 mph 3.8 mph 71% 0 in 438.00 W/m2
12:59 92 °F 79.9 °F 29.97 in Calm     68% 0 in 397.00 W/m2
13:04 92.2 °F 81.9 °F 29.97 in Calm     72% 0 in 1155.00 W/m2
13:09 92.2 °F 81 °F 29.97 in ENE 3.5 mph   70% 0 in 346.00 W/m2
13:14 92 °F 80.8 °F 29.97 in ENE 1.2 mph 0.5 mph 70% 0 in 490.00 W/m2
13:19 92 °F 80.8 °F 29.97 in Calm     70% 0 in 408.00 W/m2
13:25 92.4 °F 80.7 °F 29.96 in ESE 3.5 mph 2.7 mph 69% 0 in 977.00 W/m2
13:29 92.7 °F 81.9 °F 29.95 in ENE 4.6 mph 2.8 mph 71% 0 in 788.00 W/m2
13:34 92.5 °F 79.9 °F 29.95 in North 6 mph 3.4 mph 67% 0 in 693.00 W/m2
13:39 92 °F 80.4 °F 29.94 in East 2 mph 1.8 mph 69% 0 in 540.00 W/m2
13:44 91.7 °F 80.5 °F 29.95 in ENE 4 mph 2.8 mph 70% 0 in 657.00 W/m2
13:49 91.5 °F 80.8 °F 29.94 in ENE 6.9 mph 1.2 mph 71% 0 in 468.00 W/m2
13:54 91.4 °F 81.1 °F 29.94 in North 3 mph 1.8 mph 72% 0 in 656.00 W/m2
13:59 91.1 °F 80.4 °F 29.94 in East 9.2 mph 5.1 mph 71% 0 in 860.00 W/m2
14:04 91.1 °F 80.4 °F 29.94 in ENE 8.1 mph 4.8 mph 71% 0 in 816.00 W/m2
14:09 91.2 °F 80.9 °F 29.94 in ESE 8.1 mph 5.8 mph 72% 0 in 543.00 W/m2
14:14 90.9 °F 80.6 °F 29.95 in ENE 6.9 mph 3.1 mph 72% 0 in 591.00 W/m2
14:19 90.3 °F 79.6 °F 29.95 in North 8.1 mph 2.4 mph 71% 0 in 258.00 W/m2
14:24 89.4 °F 78.3 °F 29.96 in ENE 7 mph 3.7 mph 70% 0 in 200.00 W/m2
14:29 88.3 °F 77.7 °F 29.96 in East 6.9 mph 5.2 mph 71% 0 in 144.00 W/m2
14:34 87.3 °F 76.7 °F 29.97 in ENE 8.1 mph 1.9 mph 71% 0 in 97.00 W/m2
14:39 86.8 °F 76.7 °F 29.99 in ENE 1.2 mph   72% 0 in 63.00 W/m2
14:44 86.4 °F 76.7 °F 30.00 in NE 2.3 mph 0.1 mph 73% 0 in 49.00 W/m2
14:49 85.4 °F 74.1 °F 30.08 in NW 28.8 mph 25.5 mph 69% 0 in 7.00 W/m2
14:54 76.6 °F 70 °F 30.09 in West 34.5 mph 16.4 mph 80% 0 in 0.00 W/m2
14:59 72.5 °F 68.4 °F 30.07 in WNW 42.6 mph 21.9 mph 87% 0.02 in 0.00 W/m2
15:04 70.4 °F 67.3 °F 30.07 in NNW 34.5 mph 20.8 mph 90% 0.14 in 0.00 W/m2
15:09 68.9 °F 66.8 °F 30.06 in NW 34.5 mph 23.3 mph 93% 0.36 in 0.00 W/m2
15:14 68 °F 65.9 °F 30.08 in NW 29.9 mph 17.4 mph 93% 0.51 in 0.00 W/m2
15:20 67.8 °F 66 °F 30.10 in NW 20.7 mph 14.4 mph 94% 0.63 in 0.00 W/m2
15:24 68.1 °F 66.3 °F 30.10 in NNW 23 mph 12.6 mph 94% 0.72 in 0.00 W/m2
15:29 68.4 °F 66.6 °F 30.10 in North 13.8 mph 12.3 mph 94% 0.79 in 0.00 W/m2
15:34 68.6 °F 66.8 °F 30.10 in North 12.7 mph 7.6 mph 94% 0.81 in 0.00 W/m2
15:40 68.5 °F 66.7 °F 30.09 in NNW 11.5 mph 6.5 mph 94% 0.81 in 0.00 W/m2
15:44 68.5 °F 67 °F 30.09 in NNW 5.8 mph 4 mph 95% 0.82 in 0.00 W/m2
15:50 68.6 °F 67.1 °F 30.07 in NW 3.5 mph 2.4 mph 95% 0.83 in 0.00 W/m2
15:55 68.6 °F 67.1 °F 30.05 in NW 2.3 mph 1.1 mph 95% 0.83 in 0.00 W/m2
15:59 68.6 °F 67.1 °F 30.05 in North 2.3 mph 0.3 mph 95% 0.81 in 0.00 W/m2
16:04 68.6 °F 67.1 °F 30.04 in NE 3.5 mph 1.8 mph 95% 0.69 in 0.00 W/m2
16:09 68.6 °F 67.1 °F 30.03 in Calm     95% 0.48 in 0.00 W/m2
16:14 68.7 °F 67.2 °F 30.03 in NE 2.3 mph 0.2 mph 95% 0.33 in 0.00 W/m2
16:19 68.7 °F 67.2 °F 30.03 in Calm     95% 0.22 in 0.00 W/m2
16:24 68.9 °F 67.4 °F 30.02 in SE 3.5 mph 2 mph 95% 0.12 in 0.00 W/m2
16:29 69.1 °F 67.6 °F 30.01 in SE 4.6 mph 3.2 mph 95% 0.05 in 0.00 W/m2
16:34 69.3 °F 67.8 °F 30.00 in SE 3.5 mph 3.4 mph 95% 0.03 in 0.00 W/m2
16:39 69.4 °F 67.9 °F 29.98 in ESE 3 mph 2.7 mph 95% 0.04 in 0.00 W/m2
16:44 69.4 °F 67.9 °F 29.98 in SE 4.6 mph 3.6 mph 95% 0.03 in 0.00 W/m2
16:49 69.5 °F 68 °F 29.98 in SSE 8.1 mph 2.4 mph 95% 0.02 in 5.00 W/m2
16:54 69.5 °F 68 °F 29.96 in SSE 8.1 mph 7.1 mph 95% 0.03 in 5.00 W/m2
16:59 69.5 °F 68 °F 29.95 in SSE 8.1 mph 3.2 mph 95% 0.03 in 5.00 W/m2
17:05 69.4 °F 67.9 °F 29.95 in SE 4.6 mph 0.9 mph 95% 0.02 in 7.00 W/m2
17:09 69.3 °F 67.8 °F 29.94 in ESE 5.8 mph 1.1 mph 95% 0.02 in 7.00 W/m2
17:14 69.2 °F 67.7 °F 29.93 in ESE 11.5 mph 4.9 mph 95% 0.03 in 9.00 W/m2
17:20 69.2 °F 67.7 °F 29.94 in ESE 10.4 mph 6 mph 95% 0.03 in 9.00 W/m2
17:24 69.2 °F 67.7 °F 29.92 in SE 10.4 mph 4.9 mph 95% 0.03 in 11.00 W/m2
17:29 69.1 °F 67.6 °F 29.90 in East 9 mph 5.9 mph 95% 0.03 in 14.00 W/m2
17:34 69.2 °F 67.7 °F 29.88 in ESE 15 mph 10.8 mph 95% 0.03 in 16.00 W/m2
17:39 69.2 °F 67.7 °F 29.86 in SSE 20.7 mph 12.7 mph 95% 0.02 in 19.00 W/m2
17:44 69.2 °F 67.7 °F 29.84 in ESE 19.6 mph 14.2 mph 95% 0.02 in 21.00 W/m2
17:49 69.3 °F 67.8 °F 29.83 in SSE 23 mph 14.6 mph 95% 0.02 in 23.00 W/m2
17:54 69.3 °F 67.8 °F 29.83 in ESE 13.8 mph 9.4 mph 95% 0.01 in 25.00 W/m2
17:59 69.4 °F 67.9 °F 29.85 in SE 4.6 mph 1.8 mph 95% 0.01 in 26.00 W/m2
18:04 69.4 °F 67.9 °F 29.87 in Calm     95% 0.01 in 28.00 W/m2
18:09 69.6 °F 68.1 °F 29.88 in Calm     95% 0.01 in 30.00 W/m2
18:14 69.8 °F 68.3 °F 29.88 in West 3.5 mph 1 mph 95% 0 in 32.00 W/m2
18:19 70 °F 68.5 °F 29.88 in SW 6 mph 4.3 mph 95% 0 in 35.00 W/m2
18:25 70.2 °F 68.7 °F 29.88 in Calm     95% 0 in 39.00 W/m2
18:30 70.2 °F 68.7 °F 29.88 in SW 2.3 mph 0.4 mph 95% 0 in 42.00 W/m2
18:34 70.4 °F 68.9 °F 29.88 in West 2.3 mph 0.1 mph 95% 0 in 44.00 W/m2
18:39 70.7 °F 69.2 °F 29.89 in WNW 3.5 mph 1.2 mph 95% 0 in 46.00 W/m2
18:44 70.9 °F 69.1 °F 29.89 in Calm     94% 0 in 47.00 W/m2
18:49 71 °F 69.2 °F 29.89 in Calm     94% 0 in 51.00 W/m2
18:54 71.3 °F 69.5 °F 29.90 in WNW 3.5 mph 1.3 mph 94% 0 in 53.00 W/m2
18:59 71.4 °F 69.6 °F 29.90 in WNW 3.5 mph 1.5 mph 94% 0 in 54.00 W/m2
19:04 71.7 °F 69.6 °F 29.91 in NW 3.5 mph 1.9 mph 93% 0 in 58.00 W/m2
19:09 71.9 °F 69.4 °F 29.91 in WNW 3.5 mph 2 mph 92% 0 in 54.00 W/m2
19:14 72.2 °F 69.7 °F 29.92 in WNW 3.5 mph 0.3 mph 92% 0 in 51.00 W/m2
19:20 72.4 °F 69.6 °F 29.92 in Calm     91% 0 in 46.00 W/m2
19:24 72.6 °F 69.8 °F 29.93 in Calm     91% 0 in 37.00 W/m2
19:29 72.6 °F 69.5 °F 29.94 in WNW 2 mph 0.6 mph 90% 0 in 30.00 W/m2
19:34 72.8 °F 69.4 °F 29.96 in WNW 14 mph 7.8 mph 89% 0 in 23.00 W/m2
19:39 73 °F 69.2 °F 29.97 in West 11.5 mph 6.8 mph 88% 0 in 16.00 W/m2
19:44 72.9 °F 69.1 °F 29.97 in West 11.5 mph 5.7 mph 88% 0 in 14.00 W/m2
19:49 72.9 °F 69.1 °F 29.97 in NW 10.4 mph 5.1 mph 88% 0 in 12.00 W/m2
19:54 72.7 °F 69.3 °F 29.98 in West 5.8 mph 4.6 mph 89% 0 in 9.00 W/m2
19:59 72.6 °F 69.2 °F 29.98 in WNW 8 mph 6.3 mph 89% 0 in 7.00 W/m2
20:04 72.6 °F 69.2 °F 29.99 in NW 9.2 mph 3.1 mph 89% 0 in 5.00 W/m2
20:09 72.5 °F 69.1 °F 29.99 in West 5.8 mph 4.6 mph 89% 0 in 0.00 W/m2
20:14 72.5 °F 69.1 °F 30.00 in NW 6.9 mph 1.5 mph 89% 0 in 0.00 W/m2
20:19 72.4 °F 69 °F 29.99 in WNW 5.8 mph 1.6 mph 89% 0 in 0.00 W/m2
20:24 72.5 °F 69.1 °F 29.99 in West 4.6 mph 3.1 mph 89% 0 in 0.00 W/m2
20:29 72.5 °F 69.4 °F 30.00 in West 6.9 mph 3.2 mph 90% 0 in 0.00 W/m2
20:34 72.4 °F 69.3 °F 29.99 in WNW 9.2 mph 5.2 mph 90% 0 in 0.00 W/m2
20:39 72.4 °F 69.3 °F 29.99 in WSW 6.9 mph 1.7 mph 90% 0 in 0.00 W/m2
20:44 72.5 °F 69.4 °F 29.99 in West 8.1 mph 1.5 mph 90% 0 in 0.00 W/m2
20:49 72.4 °F 69.3 °F 29.99 in West 4 mph 0.9 mph 90% 0 in 0.00 W/m2
20:54 72.3 °F 69.2 °F 29.98 in WSW 6.9 mph 3.8 mph 90% 0 in 0.00 W/m2
20:59 72.4 °F 69.3 °F 29.99 in WSW 5 mph 2.9 mph 90% 0 in 0.00 W/m2
21:04 72.6 °F 69.5 °F 30.02 in WNW 14 mph 7.2 mph 90% 0 in 0.00 W/m2
21:10 72.6 °F 69.5 °F 30.02 in West 11.5 mph 4.5 mph 90% 0 in 0.00 W/m2
21:14 72.6 °F 69.5 °F 30.01 in WNW 5.8 mph 3.7 mph 90% 0 in 0.00 W/m2
21:19 72.6 °F 69.5 °F 30.00 in WNW 3.5 mph 3.2 mph 90% 0 in 0.00 W/m2
21:24 72.6 °F 69.5 °F 30.02 in North 7 mph 4.8 mph 90% 0 in 0.00 W/m2
21:29 72.6 °F 69.5 °F 30.00 in Calm   0.4 mph 90% 0 in 0.00 W/m2
21:34 72.5 °F 69.4 °F 30.01 in Calm     90% 0 in 0.00 W/m2
21:39 72.4 °F 69.3 °F 30.00 in Calm     90% 0 in 0.00 W/m2
21:44 72.1 °F 69 °F 30.00 in NE 3.5 mph 2.3 mph 90% 0 in 0.00 W/m2
21:49 71.6 °F 68.8 °F 29.99 in NE 3 mph 1.5 mph 91% 0 in 0.00 W/m2
21:55 71.2 °F 68.4 °F 29.99 in Calm     91% 0 in 0.00 W/m2
21:59 70.9 °F 68.5 °F 29.98 in Calm     92% 0 in 0.00 W/m2
22:04 70.7 °F 68.6 °F 29.99 in Calm     93% 0 in 0.00 W/m2
22:09 70.6 °F 68.5 °F 29.99 in Calm     93% 0 in 0.00 W/m2
22:15 70.6 °F 68.5 °F 29.98 in Calm     93% 0 in 0.00 W/m2
22:19 70.5 °F 68.4 °F 29.99 in Calm     93% 0 in 0.00 W/m2
22:24 70.5 °F 68.7 °F 29.98 in Calm     94% 0 in 0.00 W/m2
22:29 70.4 °F 68.6 °F 29.98 in Calm     94% 0 in 0.00 W/m2
22:34 70.4 °F 68.6 °F 29.98 in Calm     94% 0 in 0.00 W/m2
22:39 70.4 °F 68.6 °F 29.97 in Calm     94% 0 in 0.00 W/m2
22:45 70.4 °F 68.6 °F 29.97 in Calm     94% 0 in 0.00 W/m2
22:49 70.4 °F 68.6 °F 29.97 in Calm     94% 0 in 0.00 W/m2
22:54 70.4 °F 68.6 °F 29.97 in Calm     94% 0 in 0.00 W/m2
22:59 70.4 °F 68.6 °F 29.97 in Calm     94% 0 in 0.00 W/m2
23:04 70.3 °F 68.5 °F 29.97 in Calm     94% 0 in 0.00 W/m2
23:09 70.3 °F 68.5 °F 29.97 in Calm     94% 0 in 0.00 W/m2
23:14 70.2 °F 68.4 °F 29.97 in Calm     94% 0 in 0.00 W/m2
23:19 70.1 °F 68.3 °F 29.97 in Calm     94% 0 in 0.00 W/m2
23:24 70 °F 68.2 °F 29.97 in Calm     94% 0 in 0.00 W/m2
23:29 69.9 °F 68.1 °F 29.97 in Calm     94% 0 in 0.00 W/m2
23:34 69.8 °F 68 °F 29.97 in Calm     94% 0 in 0.00 W/m2
23:39 69.8 °F 68.3 °F 29.97 in Calm     95% 0 in 0.00 W/m2
23:44 69.7 °F 68.2 °F 29.97 in Calm     95% 0 in 0.00 W/m2
23:49 69.5 °F 67.7 °F 29.96 in Calm     94% 0 in 0.00 W/m2
23:54 69.3 °F 67.5 °F 29.96 in Calm     94% 0 in 0.00 W/m2
23:59 69.4 °F 67.9 °F 29.95 in Calm     95% 0 in 0.00 W/m2
Bourbonnais, Illinois, USA
Compliments of Weather Underground - 2 mb